• Join FlightAware (Why Join?)
  • Login
  • US Flag 
06:27AM EDT


 

Airport Tracker/Info


-or-


 

Live Flight TrackerFlight Track Log ✈ EJA396 ✈ 03-May-2013 ✈ KOMA - KSJC

Flight Track Log - Related Links

Times and Time Zones

All times are in EDT time to prevent confusion due to time zone crossing. See the EJA396 flight status page for this flight to view local times or setup timezone preferences in your user account.

Time Position Orientation Groundspeed Altitude Reporting Facility
EDT Latitude Longitude Course Direction KTS MPH feet Rate Location/Type
01:14PM 41.3058 -95.8989 321° Northwest 131 151 1,800  Level Minneapolis Center
01:14PM 41.3150 -95.9089 321° Northwest 136 157 2,800 3,780 Climbing Minneapolis Center
01:15PM 41.3561 -95.9544 320° Northwest 191 220 6,600 4,140 Climbing Minneapolis Center
01:16PM 41.3922 -96.0347 301° West 242 278 11,100 3,480 Climbing Minneapolis Center
01:17PM 41.4228 -96.1442 290° West 288 331 13,900 3,240 Climbing Minneapolis Center
01:18PM 41.4639 -96.2819 292° West 341 392 17,800 2,820 Climbing Minneapolis Center
01:19PM 41.5075 -96.4000 296° West 379 436 19,800 2,340 Climbing Minneapolis Center
01:21PM 41.5314 -96.5719 281° West 397 457 22,700 2,160 Climbing Minneapolis Center
01:22PM 41.5261 -96.7256 267° West 411 473 24,300 1,620 Climbing Minneapolis Center
01:23PM 41.5189 -96.8825 267° West 420 483 26,100 1,680 Climbing Minneapolis Center
01:24PM 41.5117 -97.0414 267° West 428 493 27,800 1,740 Climbing Minneapolis Center
01:25PM 41.5053 -97.2022 267° West 432 497 29,700 1,680 Climbing Minneapolis Center
01:26PM 41.4967 -97.3647 266° West 438 504 31,300 1,620 Climbing Minneapolis Center
01:27PM 41.4869 -97.5633 266° West 444 511 33,100 1,560 Climbing Minneapolis Center
01:28PM 41.4792 -97.7292 266° West 448 516 34,500 1,140 Climbing Minneapolis Center
01:29PM 41.4706 -97.8961 266° West 450 518 35,500 720 Climbing Minneapolis Center
01:30PM 41.4628 -98.0658 267° West 455 524 36,000 240 Climbing Minneapolis Center
01:31PM 41.4539 -98.2342 266° West 458 527 36,000  Level Minneapolis Center
01:32PM 41.4436 -98.4008 265° West 453 521 36,000  Level Minneapolis Center
01:33PM 41.4336 -98.5675 265° West 452 520 36,000  Level Minneapolis Center
01:34PM 41.4233 -98.7672 266° West 451 519 36,000  Level Minneapolis Center
01:35PM 41.4142 -98.9336 266° West 451 519 36,000  Level Minneapolis Center
01:36PM 41.4028 -99.0989 265° West 450 518 36,000 300 Level Minneapolis Center
01:37PM 41.3958 -99.2192 266° West 449 517 36,600 1,080 Climbing Denver Center
01:38PM 41.3833 -99.4014 265° West 446 513 37,900 1,080 Climbing Denver Center
01:39PM 41.3742 -99.5567 266° West 443 510 38,900 900 Climbing Denver Center
01:40PM 41.3636 -99.7097 265° West 439 505 39,800 480 Climbing Denver Center
01:41PM 41.3517 -99.8864 265° West 434 499 40,000 60 Climbing Denver Center
01:42PM 41.3411 -100.0378 265° West 432 497 40,000  Level Denver Center
01:43PM 41.3286 -100.2131 265° West 429 494 40,000  Level Denver Center
01:44PM 41.3186 -100.3617 265° West 427 491 40,000  Level Denver Center
01:45PM 41.3053 -100.5322 264° West 420 483 40,000  Level Denver Center
01:46PM 41.2956 -100.6772 265° West 416 479 40,000  Level Denver Center
01:47PM 41.2825 -100.8469 264° West 416 479 40,000  Level Denver Center
01:48PM 41.2706 -100.9908 264° West 414 476 40,000  Level Denver Center
01:49PM 41.2572 -101.1567 264° West 408 470 40,000  Level Denver Center
01:50PM 41.2464 -101.2983 264° West 406 467 40,000  Level Denver Center
01:51PM 41.2322 -101.4636 264° West 405 466 40,000  Level Denver Center
01:52PM 41.2203 -101.6053 264° West 406 467 40,000  Level Denver Center
01:53PM 41.2064 -101.7700 264° West 404 465 40,000  Level Denver Center
01:54PM 41.1939 -101.9097 263° West 401 461 40,000  Level Denver Center
01:55PM 41.1800 -102.0725 264° West 400 460 40,000  Level Denver Center
01:56PM 41.1672 -102.2128 263° West 401 461 40,000  Level Denver Center
01:57PM 41.1531 -102.3761 263° West 401 461 40,000  Level Denver Center
01:58PM 41.1394 -102.5167 263° West 402 463 40,000  Level Denver Center
01:59PM 41.1236 -102.6811 263° West 405 466 40,000  Level Denver Center
02:00PM 41.1108 -102.8231 263° West 407 468 40,000  Level Denver Center
02:02PM 41.0942 -102.9889 262° West 406 467 40,000  Level Denver Center
02:03PM 41.0672 -103.1378 257° West 412 474 40,000  Level Denver Center
02:04PM 41.0408 -103.2806 256° West 416 479 40,000  Level Denver Center
02:05PM 41.0100 -103.4458 256° West 415 478 40,000  Level Denver Center
02:06PM 40.9833 -103.5872 256° West 412 474 40,000 180 Level Denver Center
02:07PM 40.9542 -103.7372 256° West 417 480 40,400 480 Climbing Denver Center
02:08PM 40.9208 -103.9144 256° West 424 488 41,000 480 Climbing Denver Center
02:09PM 40.8911 -104.0647 255° West 421 484 41,500 420 Climbing Denver Center
02:10PM 40.8617 -104.2181 256° West 426 490 42,000 480 Climbing Denver Center
02:11PM 40.8281 -104.3914 256° West 418 481 42,600 480 Climbing Denver Center
02:12PM 40.7981 -104.5383 255° West 414 476 43,000 180 Climbing Denver Center
02:13PM 40.7692 -104.6861 256° West 413 475 43,000  Level Denver Center
02:14PM 40.7347 -104.8575 255° West 413 475 43,000  Level Denver Center
02:15PM 40.7044 -105.0058 255° West 415 478 43,000  Level Denver Center
02:16PM 40.6744 -105.1514 255° West 409 471 43,000  Level Denver Center
02:17PM 40.6447 -105.2981 255° West 411 473 43,000  Level Denver Center
02:18PM 40.6139 -105.4467 255° West 416 479 43,000  Level Denver Center
02:19PM 40.5831 -105.5917 254° West 413 475 43,000  Level Denver Center
02:20PM 40.5475 -105.7653 255° West 418 481 43,000  Level Denver Center
02:21PM 40.5156 -105.9125 254° West 417 480 43,000  Level Denver Center
02:22PM 40.4836 -106.0608 254° West 417 480 43,000  Level Denver Center
02:23PM 40.4492 -106.2200 254° West 422 486 43,000  Level Denver Center
02:24PM 40.4183 -106.3631 254° West 425 489 43,000  Level Denver Center
02:26PM 40.3833 -106.5269 254° West 430 495 43,000  Level Denver Center
02:27PM 40.3494 -106.6753 253° West 428 493 43,000  Level Denver Center
02:28PM 40.3164 -106.8261 254° West 430 495 43,000  Level Denver Center
02:29PM 40.2811 -106.9856 254° West 427 491 43,000  Level Denver Center
02:30PM 40.2506 -107.1269 254° West 423 487 43,000  Level Denver Center
02:31PM 40.2131 -107.2894 253° West 418 481 43,000  Level Denver Center
02:32PM 40.1814 -107.4281 253° West 416 479 43,000  Level Denver Center
02:33PM 40.1447 -107.5872 253° West 411 473 43,000  Level Denver Center
02:34PM 40.1144 -107.7225 254° West 407 468 43,000  Level Denver Center
02:35PM 40.0778 -107.8806 253° West 407 468 43,000  Level Denver Center
02:36PM 40.0469 -108.0619 258° West 401 461 43,000  Level Denver Center
02:37PM 40.0272 -108.1986 259° West 402 463 43,000  Level Denver Center
02:38PM 40.0069 -108.3347 259° West 401 461 43,000  Level Denver Center
02:39PM 39.9836 -108.4925 259° West 399 459 43,000  Level Denver Center
02:40PM 39.9631 -108.6278 259° West 400 460 43,000  Level Denver Center
02:41PM 39.9389 -108.7867 259° West 402 463 43,000  Level Denver Center
02:42PM 39.9147 -108.9431 259° West 398 458 43,000  Level Denver Center
02:43PM 39.9083 -108.9881 260° West 398 458 43,000  Level Salt Lake Center
02:44PM 39.8833 -109.1444 258° West 398 458 43,000  Level Salt Lake Center
02:45PM 39.8622 -109.2789 258° West 398 458 43,000  Level Salt Lake Center
02:46PM 39.8369 -109.4361 258° West 399 459 43,000  Level Salt Lake Center
02:46PM 39.8219 -109.5247 258° West 397 457 43,000  Level Denver Center
02:47PM 39.8011 -109.6597 259° West 398 458 43,000  Level Denver Center
02:48PM 39.7897 -109.7267 258° West 399 459 43,000  Level Salt Lake Center
02:49PM 39.7681 -109.8606 258° West 396 456 43,000  Level Salt Lake Center
02:50PM 39.7425 -110.0169 258° West 397 457 43,000  Level Salt Lake Center
02:51PM 39.7203 -110.1503 258° West 396 456 43,000  Level Salt Lake Center
02:52PM 39.6956 -110.3064 258° West 396 456 43,000  Level Salt Lake Center
02:53PM 39.6728 -110.4389 257° West 394 453 43,000  Level Salt Lake Center
02:54PM 39.6503 -110.5722 258° West 395 455 43,000  Level Salt Lake Center
02:55PM 39.6236 -110.7272 257° West 394 453 43,000  Level Salt Lake Center
02:56PM 39.6017 -110.8603 258° West 395 455 43,000  Level Salt Lake Center
02:57PM 39.5736 -111.0147 257° West 394 453 43,000  Level Salt Lake Center
02:58PM 39.5517 -111.1472 258° West 394 453 43,000  Level Salt Lake Center
02:59PM 39.5244 -111.2986 257° West 393 452 43,000  Level Salt Lake Center
03:00PM 39.4997 -111.4358 257° West 392 451 43,000  Level Salt Lake Center
03:01PM 39.4764 -111.5717 257° West 389 448 43,000  Level Salt Lake Center
03:02PM 39.4511 -111.7072 256° West 388 447 43,000  Level Salt Lake Center
03:03PM 39.4272 -111.8428 257° West 387 445 43,000  Level Salt Lake Center
03:04PM 39.4019 -111.9772 256° West 385 443 43,000  Level Salt Lake Center
03:05PM 39.3775 -112.1114 257° West 384 442 43,000  Level Salt Lake Center
03:06PM 39.3481 -112.2725 257° West 384 442 43,000  Level Salt Lake Center
03:07PM 39.3233 -112.4058 257° West 384 442 43,000  Level Salt Lake Center
03:08PM 39.2983 -112.5400 257° West 384 442 43,000  Level Salt Lake Center
03:09PM 39.2669 -112.6719 253° West 387 445 43,000  Level Salt Lake Center
03:11PM 39.2358 -112.8078 254° West 391 450 43,000  Level Salt Lake Center
03:12PM 39.2067 -112.9367 254° West 387 445 43,000  Level Salt Lake Center
03:13PM 39.1772 -113.0692 254° West 387 445 43,000  Level Salt Lake Center
03:14PM 39.1414 -113.2261 254° West 385 443 43,000  Level Salt Lake Center
03:15PM 39.1111 -113.3597 254° West 387 445 43,000  Level Salt Lake Center
03:16PM 39.0806 -113.4919 253° West 388 447 43,000  Level Salt Lake Center
03:17PM 39.0500 -113.6261 254° West 392 451 43,000  Level Salt Lake Center
03:18PM 39.0192 -113.7578 253° West 389 448 43,000  Level Salt Lake Center
03:19PM 38.9881 -113.8903 253° West 389 448 43,000  Level Salt Lake Center
03:20PM 38.9508 -114.0497 253° West 390 449 43,000  Level Salt Lake Center
03:21PM 38.9194 -114.1819 253° West 390 449 43,000  Level Salt Lake Center
03:22PM 38.8892 -114.3128 253° West 386 444 43,000  Level Salt Lake Center
03:23PM 38.8581 -114.4442 253° West 386 444 43,000  Level Salt Lake Center
03:24PM 38.8261 -114.5753 253° West 387 445 43,000  Level Salt Lake Center
03:25PM 38.7942 -114.7064 253° West 388 447 43,000  Level Salt Lake Center
03:26PM 38.7619 -114.8389 253° West 390 449 43,000  Level Salt Lake Center
03:27PM 38.7225 -114.9967 252° West 389 448 43,000  Level Salt Lake Center
03:28PM 38.6886 -115.1303 252° West 396 456 43,000  Level Salt Lake Center
03:29PM 38.6561 -115.2606 252° West 391 450 43,000  Level Salt Lake Center
03:30PM 38.6225 -115.4011 253° West 385 443 43,000  Level Salt Lake Center
03:31PM 38.5897 -115.5322 252° West 386 444 43,000  Level Salt Lake Center
03:32PM 38.5581 -115.6625 253° West 385 443 43,000  Level Salt Lake Center
03:33PM 38.5233 -115.7928 251° West 387 445 43,000  Level Salt Lake Center
03:34PM 38.4914 -115.9231 253° West 387 445 43,000  Level Salt Lake Center
03:35PM 38.4575 -116.0544 252° West 388 447 43,000  Level Salt Lake Center
03:36PM 38.4372 -116.1319 252° West 388 447 43,000  Level Oakland Center
03:37PM 38.4036 -116.2636 252° West 390 449 43,000  Level Oakland Center
03:38PM 38.3700 -116.3939 252° West 388 447 43,000  Level Oakland Center
03:39PM 38.3364 -116.5264 252° West 392 451 43,000  Level Oakland Center
03:40PM 38.3011 -116.6586 251° West 394 453 43,000  Level Oakland Center
03:41PM 38.2667 -116.7906 252° West 393 452 43,000  Level Oakland Center
03:42PM 38.2319 -116.9217 251° West 393 452 43,000  Level Oakland Center
03:42PM 38.2108 -117.0008 251° West 390 449 43,000  Level Salt Lake Center
03:43PM 38.1764 -117.1306 251° West 391 450 43,000  Level Salt Lake Center
03:44PM 38.1547 -117.2072 250° West 394 453 43,000  Level Oakland Center
03:45PM 38.1206 -117.3403 252° West 397 457 43,000  Level Oakland Center
03:46PM 38.0867 -117.4642 251° West 396 456 43,000  Level Oakland Center
03:47PM 38.0508 -117.5961 251° West 395 455 43,000  Level Oakland Center
03:48PM 38.0153 -117.7283 251° West 396 456 43,000  Level Oakland Center
03:49PM 37.9422 -117.8719 237° Southwest 406 467 43,000 -120 Level Oakland Center
03:50PM 37.8750 -117.9869 234° Southwest 407 468 42,800 -540 Descending Oakland Center
03:51PM 37.8319 -118.1197 248° West 407 468 41,900 -960 Descending Oakland Center
03:52PM 37.7903 -118.2511 248° West 403 464 40,900 -1,140 Descending Oakland Center
03:53PM 37.7506 -118.3783 248° West 391 450 39,600 -1,380 Descending Oakland Center
03:54PM 37.7100 -118.5019 248° West 384 442 38,100 -1,500 Descending Oakland Center
03:55PM 37.6703 -118.6256 248° West 381 438 36,600 -1,500 Descending Oakland Center
03:56PM 37.6306 -118.7492 248° West 381 438 35,100 -1,620 Descending Oakland Center
03:57PM 37.5836 -118.8914 247° West 387 445 33,400 -1,620 Descending Oakland Center
03:58PM 37.5406 -119.0211 247° West 398 458 31,900 -1,500 Descending Oakland Center
03:59PM 37.4992 -119.1569 249° West 440 506 30,400 -960 Descending Oakland Center
04:00PM 37.4558 -119.2911 248° West 420 483 30,000 -360 Descending Oakland Center
04:01PM 37.4117 -119.4225 247° West 413 475 29,700 -1,140 Descending Oakland Center
04:02PM 37.3589 -119.5728 246° West 409 471 27,700 -2,280 Descending Oakland Center
04:03PM 37.3136 -119.7128 248° West 417 480 25,100 -2,160 Descending Oakland Center
04:04PM 37.2792 -119.8383 251° West 393 452 23,300 -1,620 Descending Oakland Center
04:05PM 37.2656 -119.9733 263° West 389 448 21,800 -1,320 Descending Oakland Center
04:06PM 37.2500 -120.1031 261° West 375 432 20,600 -840 Descending Oakland Center
04:07PM 37.2353 -120.2347 262° West 379 436 20,100 -900 Descending Oakland Center
04:09PM 37.2167 -120.4000 262° West 383 441 18,800 -1,740 Descending Northern Cal TRACON
04:10PM 37.2000 -120.5167 260° West 414 476 16,600 -2,340 Descending Northern Cal TRACON
04:11PM 37.1667 -120.6333 250° West 354 407 14,200 -2,340 Descending Northern Cal TRACON
04:12PM 37.1500 -120.7500 260° West 355 409 12,000 -1,800 Descending Northern Cal TRACON
04:13PM 37.1333 -120.8667 260° West 340 391 10,600 -1,020 Descending Northern Cal TRACON
04:14PM 37.1167 -120.9833 260° West 325 374 10,000 -300 Descending Northern Cal TRACON
04:15PM 37.1000 -121.0833 258° West 333 383 10,000  Level Northern Cal TRACON
04:16PM 37.0833 -121.2167 261° West 331 381 10,000  Level Northern Cal TRACON
04:17PM 37.0833 -121.3167 270° West 328 377 10,000 -480 Level Northern Cal TRACON
04:17PM 37.0667 -121.4167 258° West 294 338 9,200 -1,020 Descending Northern Cal TRACON
04:18PM 37.0608 -121.4383 251° West 301 346 8,800 -1,440 Descending Oakland Center
04:19PM 37.0914 -121.5267 293° West 281 323 7,300 -1,500 Descending Oakland Center
04:20PM 37.1236 -121.6117 295° West 271 312 5,700 -1,140 Descending Oakland Center
04:21PM 37.1542 -121.6919 296° West 266 306 5,000 -840 Descending Oakland Center
04:22PM 37.1919 -121.7486 310° West 237 273 4,100 -1,020 Descending Oakland Center
04:23PM 37.2353 -121.7933 321° Northwest 213 245 3,000 -1,080 Descending Oakland Center
04:24PM 37.2750 -121.8361 319° Northwest 200 230 2,000 -1,020 Descending Oakland Center
04:25PM 37.3194 -121.8844 319° Northwest 186 214 1,000 -840 Descending Oakland Center
04:26PM 37.3425 -121.9089 320° Northwest 136 157 400 -600 Descending Oakland Center
04:28PM 37.3500 -121.9167 North  Level FlightAware Approximate
04:35PM 37.3627 -121.9291 North  Level Estimated
04:36PM 37.3627 -121.9291 North  Level Estimated